Time;durP1;ratioP1;P1;durP2;ratioP2;P2;SDS_P1;SDS_P2;PMS_P1;PMS_P2;Temp;Humidity;BMP_temperature;BMP_pressure;BME280_temperature;BME280_humidity;BME280_pressure;Samples;Min_cycle;Max_cycle;Signal;HPM_P1;HPM_P2
2023/04/21 00:00:51;;;;;;;26.15;17.58;;;10.00;99.90;;;;;;5067695;28;20048;-58
2023/04/21 00:03:19;;;;;;;25.08;17.05;;;10.40;99.90;;;;;;5067442;28;20040;-59
2023/04/21 00:05:45;;;;;;;25.10;16.65;;;10.60;99.90;;;;;;5070526;28;20087;-58
2023/04/21 00:08:11;;;;;;;27.63;17.88;;;9.70;99.90;;;;;;5064797;28;20536;-59
2023/04/21 00:10:37;;;;;;;24.45;16.33;;;9.30;99.90;;;;;;5069885;28;20064;-58
2023/04/21 00:13:02;;;;;;;22.05;16.45;;;9.50;99.90;;;;;;5064365;28;20031;-58
2023/04/21 00:15:28;;;;;;;27.17;16.83;;;10.00;99.90;;;;;;5065577;28;20407;-58
2023/04/21 00:17:53;;;;;;;22.30;16.48;;;9.50;99.90;;;;;;5065721;28;20033;-58
2023/04/21 00:20:19;;;;;;;22.73;16.60;;;10.00;99.90;;;;;;5066962;28;20036;-58
2023/04/21 00:22:45;;;;;;;21.50;16.42;;;;;;;;;;5068317;28;20116;-57
2023/04/21 00:25:11;;;;;;;23.38;15.88;;;9.00;99.90;;;;;;5068446;28;20451;-57
2023/04/21 00:27:37;;;;;;;25.60;16.75;;;;;;;;;;5069987;28;20043;-59
2023/04/21 00:30:03;;;;;;;21.85;14.90;;;9.00;99.90;;;;;;5060547;28;20036;-58
2023/04/21 00:32:28;;;;;;;23.75;15.48;;;9.40;99.90;;;;;;5069590;28;20078;-59
2023/04/21 00:34:54;;;;;;;22.65;15.05;;;10.10;99.90;;;;;;5059966;28;20041;-58
2023/04/21 00:37:20;;;;;;;24.90;15.23;;;9.80;99.90;;;;;;5066929;28;20532;-60
2023/04/21 00:39:45;;;;;;;22.05;14.77;;;9.20;99.90;;;;;;5066409;28;20040;-61
2023/04/21 00:42:15;;;;;;;23.95;15.95;;;9.40;99.90;;;;;;5067774;28;20493;-55
2023/04/21 00:44:40;;;;;;;21.98;15.00;;;9.60;99.90;;;;;;5064809;28;20136;-57
2023/04/21 00:47:09;;;;;;;22.70;15.65;;;9.10;99.90;;;;;;5065487;28;20048;-57
2023/04/21 00:49:34;;;;;;;21.65;15.00;;;9.20;99.90;;;;;;5068371;28;20037;-57
2023/04/21 00:52:00;;;;;;;27.90;15.82;;;9.20;99.90;;;;;;5068365;28;20086;-57
2023/04/21 00:54:26;;;;;;;25.30;16.10;;;9.50;99.90;;;;;;5068608;28;20070;-57
2023/04/21 00:56:52;;;;;;;22.45;14.10;;;9.80;99.90;;;;;;5066262;28;20068;-56
2023/04/21 00:59:18;;;;;;;23.42;15.15;;;9.30;99.90;;;;;;5065366;28;20102;-58
2023/04/21 01:01:43;;;;;;;19.95;14.27;;;9.30;99.90;;;;;;5067680;28;20033;-58
2023/04/21 01:04:09;;;;;;;21.13;14.13;;;9.10;99.90;;;;;;5061793;28;20809;-58
2023/04/21 01:06:35;;;;;;;22.45;14.65;;;9.00;99.90;;;;;;5062579;28;20088;-58
2023/04/21 01:09:03;;;;;;;19.70;12.80;;;9.20;99.90;;;;;;5066444;28;20040;-58
2023/04/21 01:11:30;;;;;;;21.45;13.27;;;9.10;99.90;;;;;;5067747;28;20048;-59
2023/04/21 01:13:55;;;;;;;21.48;14.30;;;9.40;99.90;;;;;;5065099;28;20048;-57
2023/04/21 01:16:22;;;;;;;19.58;13.55;;;8.70;99.90;;;;;;5058673;28;20390;-57
2023/04/21 01:18:49;;;;;;;18.88;13.57;;;9.20;99.90;;;;;;5067319;28;20093;-58
2023/04/21 01:21:16;;;;;;;23.45;13.38;;;9.10;99.90;;;;;;5067305;28;20043;-57
2023/04/21 01:23:42;;;;;;;22.75;13.77;;;8.80;99.90;;;;;;5066691;28;20036;-58
2023/04/21 01:26:08;;;;;;;19.50;13.35;;;8.90;99.90;;;;;;5056129;28;20430;-58
2023/04/21 01:28:34;;;;;;;23.20;14.93;;;8.80;99.90;;;;;;5066919;28;20044;-58
2023/04/21 01:31:00;;;;;;;24.00;14.75;;;9.30;99.90;;;;;;5067075;28;20048;-58
2023/04/21 01:33:25;;;;;;;20.05;14.10;;;9.00;99.90;;;;;;5068773;28;20405;-57
2023/04/21 01:35:51;;;;;;;21.58;14.23;;;9.20;99.90;;;;;;5071759;28;20041;-58
2023/04/21 01:38:17;;;;;;;24.40;15.70;;;8.90;99.90;;;;;;5073090;28;20116;-58
2023/04/21 01:40:48;;;;;;;22.67;14.70;;;8.90;99.90;;;;;;5065279;28;20040;-57
2023/04/21 01:43:16;;;;;;;21.73;13.75;;;9.00;99.90;;;;;;5073131;28;20052;-59
2023/04/21 01:45:42;;;;;;;21.83;13.57;;;9.00;99.90;;;;;;5069957;28;20045;-58
2023/04/21 01:48:08;;;;;;;21.88;14.15;;;;;;;;;;5068313;28;20043;-57
2023/04/21 01:50:34;;;;;;;20.33;14.35;;;8.90;99.90;;;;;;5072268;28;20405;-57
2023/04/21 01:52:59;;;;;;;22.02;14.52;;;9.20;99.90;;;;;;5069545;28;20028;-58
2023/04/21 01:55:25;;;;;;;24.10;14.82;;;8.90;99.90;;;;;;5069393;28;20032;-57
2023/04/21 01:57:50;;;;;;;20.75;14.70;;;8.00;99.90;;;;;;5069393;28;20095;-58
2023/04/21 02:00:16;;;;;;;26.15;15.50;;;9.10;99.90;;;;;;5072213;28;20686;-58
2023/04/21 02:02:42;;;;;;;26.80;14.88;;;8.70;99.90;;;;;;5069919;28;20410;-58
2023/04/21 02:05:08;;;;;;;20.95;15.40;;;8.40;99.90;;;;;;5071753;28;20047;-56
2023/04/21 02:07:33;;;;;;;25.23;15.15;;;8.70;99.90;;;;;;5064498;28;20487;-58
2023/04/21 02:09:59;;;;;;;21.80;14.00;;;8.90;99.90;;;;;;5072296;28;20041;-58
2023/04/21 02:12:25;;;;;;;22.33;14.48;;;8.80;99.90;;;;;;5070902;28;20059;-58
2023/04/21 02:14:50;;;;;;;22.77;14.98;;;8.90;1.00;;;;;;5064408;28;20032;-58
2023/04/21 02:17:16;;;;;;;24.00;15.52;;;8.70;1.00;;;;;;5072661;28;20032;-59
2023/04/21 02:19:42;;;;;;;23.38;14.05;;;8.30;1.00;;;;;;5068878;28;20040;-58
2023/04/21 02:22:11;;;;;;;20.15;14.30;;;8.90;1.00;;;;;;5068106;28;20043;-57
2023/04/21 02:24:37;;;;;;;21.75;13.65;;;8.30;1.00;;;;;;5067597;28;20585;-59
2023/04/21 02:27:03;;;;;;;23.00;14.35;;;8.80;1.00;;;;;;5070909;28;20111;-58
2023/04/21 02:29:29;;;;;;;25.27;14.98;;;8.50;1.00;;;;;;5069586;28;20044;-58
2023/04/21 02:31:54;;;;;;;20.98;13.70;;;8.70;1.00;;;;;;5070211;28;20044;-56
2023/04/21 02:34:20;;;;;;;23.90;14.82;;;8.50;1.00;;;;;;5070972;28;20082;-58
2023/04/21 02:36:46;;;;;;;20.73;14.55;;;8.60;1.00;;;;;;5069377;28;20044;-57
2023/04/21 02:39:12;;;;;;;22.90;14.55;;;7.90;1.00;;;;;;5072684;28;20159;-55
2023/04/21 02:41:38;;;;;;;22.80;14.95;;;7.80;1.00;;;;;;5063683;28;20112;-58
2023/04/21 02:44:04;;;;;;;22.98;14.95;;;7.90;1.00;;;;;;5067822;28;20776;-56
2023/04/21 02:46:29;;;;;;;23.17;14.93;;;7.60;6.80;;;;;;5065770;28;20115;-58
2023/04/21 02:48:55;;;;;;;20.58;13.82;;;7.80;38.10;;;;;;5065637;28;20032;-56
2023/04/21 02:51:21;;;;;;;22.15;13.60;;;8.50;26.00;;;;;;5070283;28;20124;-58
2023/04/21 02:53:47;;;;;;;24.35;13.98;;;;;;;;;;5065545;28;20119;-58
2023/04/21 02:56:12;;;;;;;23.02;14.82;;;7.90;49.10;;;;;;5070643;28;20505;-58
2023/04/21 02:58:38;;;;;;;29.65;14.88;;;7.90;50.70;;;;;;5063727;28;20040;-58
2023/04/21 03:01:04;;;;;;;21.65;14.52;;;7.90;49.40;;;;;;5066171;28;20516;-59
2023/04/21 03:03:31;;;;;;;23.77;14.32;;;8.40;92.50;;;;;;5061825;28;20604;-57
2023/04/21 03:05:57;;;;;;;23.33;13.82;;;8.60;58.70;;;;;;5071641;28;20052;-58
2023/04/21 03:08:23;;;;;;;19.90;14.40;;;7.80;71.40;;;;;;5063986;28;20037;-59
2023/04/21 03:10:48;;;;;;;24.40;15.45;;;8.10;62.00;;;;;;5065981;28;20044;-55
2023/04/21 03:13:15;;;;;;;21.60;14.77;;;7.60;70.20;;;;;;5068023;28;20041;-56
2023/04/21 03:15:40;;;;;;;26.98;15.48;;;8.60;77.50;;;;;;5068481;28;20540;-57
2023/04/21 03:18:06;;;;;;;24.83;16.48;;;8.60;51.40;;;;;;5070233;28;20037;-58
2023/04/21 03:20:31;;;;;;;22.75;14.90;;;8.60;74.50;;;;;;5065090;28;20098;-58
2023/04/21 03:22:57;;;;;;;25.10;15.38;;;8.10;78.40;;;;;;5068128;28;20033;-57
2023/04/21 03:25:23;;;;;;;23.27;15.75;;;8.90;69.10;;;;;;5068008;28;20119;-54
2023/04/21 03:27:49;;;;;;;24.02;16.48;;;7.50;81.00;;;;;;5069117;28;20107;-57
2023/04/21 03:30:15;;;;;;;23.05;16.27;;;8.40;90.90;;;;;;5063309;28;20033;-57
2023/04/21 03:32:40;;;;;;;23.00;15.77;;;7.90;90.90;;;;;;5068195;28;20402;-55
2023/04/21 03:35:06;;;;;;;23.45;15.98;;;8.30;95.10;;;;;;5068105;28;20112;-59
2023/04/21 03:37:32;;;;;;;27.33;17.02;;;8.30;99.90;;;;;;5065261;28;20075;-57
2023/04/21 03:39:58;;;;;;;26.35;18.50;;;7.90;99.90;;;;;;5065909;28;20485;-58
2023/04/21 03:42:24;;;;;;;24.02;16.73;;;7.60;93.10;;;;;;5064453;28;20086;-55
2023/04/21 03:44:51;;;;;;;25.92;15.70;;;;;;;;;;5069451;28;20040;-58
2023/04/21 03:47:16;;;;;;;26.50;15.52;;;7.80;99.90;;;;;;5066833;28;20442;-56
2023/04/21 03:49:42;;;;;;;23.35;16.08;;;7.60;99.90;;;;;;5069511;28;20186;-54
2023/04/21 03:52:07;;;;;;;26.88;16.90;;;8.70;99.90;;;;;;5063065;28;20036;-59
2023/04/21 03:54:33;;;;;;;21.13;15.35;;;8.30;99.90;;;;;;5066970;28;20040;-59
2023/04/21 03:56:59;;;;;;;27.45;16.55;;;7.50;99.90;;;;;;5066146;28;20036;-57
2023/04/21 03:59:25;;;;;;;24.98;17.05;;;8.10;99.90;;;;;;5064678;28;20051;-57
2023/04/21 04:01:50;;;;;;;28.27;18.02;;;7.60;99.90;;;;;;5069775;28;20113;-57
2023/04/21 04:04:16;;;;;;;26.85;15.02;;;8.50;99.90;;;;;;5067010;28;20040;-58
2023/04/21 04:06:41;;;;;;;25.73;16.38;;;8.50;99.90;;;;;;5065420;28;20071;-56
2023/04/21 04:09:07;;;;;;;26.20;15.70;;;7.70;99.90;;;;;;5063475;28;20090;-58
2023/04/21 04:11:33;;;;;;;23.17;15.93;;;8.70;99.90;;;;;;5066318;28;20048;-58
2023/04/21 04:13:59;;;;;;;22.67;15.15;;;7.70;99.90;;;;;;5068015;28;20111;-57
2023/04/21 04:16:24;;;;;;;23.00;15.55;;;7.80;99.90;;;;;;5068159;28;20139;-59
2023/04/21 04:18:50;;;;;;;23.15;16.02;;;7.70;99.90;;;;;;5068105;28;20036;-58
2023/04/21 04:21:16;;;;;;;21.95;14.25;;;;;;;;;;5058516;28;20051;-58
2023/04/21 04:23:43;;;;;;;24.42;14.93;;;8.40;99.90;;;;;;5067977;28;20036;-59
2023/04/21 04:26:10;;;;;;;25.23;15.85;;;7.80;99.90;;;;;;5065872;28;20370;-57
2023/04/21 04:28:36;;;;;;;22.33;14.82;;;8.50;99.90;;;;;;5069643;28;20032;-59
2023/04/21 04:31:01;;;;;;;20.48;13.45;;;7.70;99.90;;;;;;5057605;28;20401;-57
2023/04/21 04:33:27;;;;;;;23.13;15.38;;;8.30;99.90;;;;;;5067843;28;20032;-58
2023/04/21 04:35:53;;;;;;;22.45;14.80;;;8.10;99.90;;;;;;5065380;28;20036;-56
2023/04/21 04:38:19;;;;;;;19.85;14.38;;;8.00;99.90;;;;;;5059895;28;20123;-56
2023/04/21 04:40:52;;;;;;;21.98;14.23;;;8.20;99.90;;;;;;5068440;28;20126;-59
2023/04/21 04:43:17;;;;;;;21.02;14.80;;;8.40;99.90;;;;;;5061168;28;20124;-55
2023/04/21 04:45:44;;;;;;;19.15;14.48;;;8.70;99.90;;;;;;5060275;28;20112;-55
2023/04/21 04:48:10;;;;;;;19.77;13.65;;;8.30;99.90;;;;;;5060494;28;20071;-59
2023/04/21 04:50:35;;;;;;;21.58;13.55;;;8.50;99.90;;;;;;5065143;28;20476;-58
2023/04/21 04:53:01;;;;;;;20.02;13.13;;;8.50;99.90;;;;;;5058542;28;20416;-56
2023/04/21 04:55:26;;;;;;;20.75;12.57;;;8.90;99.90;;;;;;5056193;28;20398;-57
2023/04/21 04:57:52;;;;;;;20.52;14.32;;;8.60;99.90;;;;;;5050428;28;20486;-59
2023/04/21 05:00:18;;;;;;;22.55;13.90;;;8.70;99.90;;;;;;5056992;28;20032;-55
2023/04/21 05:02:44;;;;;;;23.42;14.40;;;8.70;99.90;;;;;;5062201;28;20036;-54
2023/04/21 05:05:09;;;;;;;20.88;14.07;;;8.60;96.80;;;;;;5066881;28;20036;-58
2023/04/21 05:07:36;;;;;;;19.42;11.75;;;8.40;89.10;;;;;;5067308;28;20033;-58
2023/04/21 05:10:03;;;;;;;19.58;13.20;;;8.70;89.20;;;;;;5045038;28;20041;-57
2023/04/21 05:12:31;;;;;;;19.08;12.35;;;8.90;89.70;;;;;;5059668;28;20064;-57
2023/04/21 05:14:57;;;;;;;20.33;13.00;;;8.80;76.80;;;;;;5057975;28;20039;-58
2023/04/21 05:17:22;;;;;;;20.10;12.77;;;8.80;63.50;;;;;;5068714;28;20048;-57
2023/04/21 05:19:48;;;;;;;15.55;11.80;;;9.10;73.50;;;;;;5068600;28;20036;-58
2023/04/21 05:22:14;;;;;;;26.15;13.63;;;8.40;55.50;;;;;;5067855;28;20044;-58
2023/04/21 05:24:42;;;;;;;18.27;12.18;;;9.00;75.40;;;;;;5067932;28;20466;-58
2023/04/21 05:27:09;;;;;;;19.83;11.82;;;;;;;;;;5063876;28;20028;-58
2023/04/21 05:29:34;;;;;;;18.83;13.30;;;8.90;52.10;;;;;;5067035;28;20398;-58
2023/04/21 05:32:00;;;;;;;19.45;12.25;;;8.90;35.20;;;;;;5069242;28;20033;-59
2023/04/21 05:34:26;;;;;;;17.85;12.35;;;9.10;35.00;;;;;;5068863;28;20044;-57
2023/04/21 05:36:51;;;;;;;19.15;12.15;;;8.40;18.50;;;;;;5068698;28;20095;-58
2023/04/21 05:39:17;;;;;;;18.33;11.82;;;8.70;64.10;;;;;;5068723;28;20036;-57
2023/04/21 05:41:43;;;;;;;18.17;12.82;;;8.70;61.30;;;;;;5068115;28;20047;-58
2023/04/21 05:44:08;;;;;;;19.50;12.07;;;8.60;66.10;;;;;;5068735;28;20044;-58
2023/04/21 05:46:34;;;;;;;18.20;11.40;;;8.80;55.60;;;;;;5068398;28;20033;-57
2023/04/21 05:49:03;;;;;;;21.10;12.57;;;8.70;93.50;;;;;;5067706;28;20554;-57
2023/04/21 05:51:28;;;;;;;18.23;12.15;;;8.60;94.70;;;;;;5055255;28;20052;-58
2023/04/21 05:53:54;;;;;;;20.42;12.48;;;8.70;96.60;;;;;;5061164;28;20029;-58
2023/04/21 05:56:20;;;;;;;19.33;11.05;;;8.60;91.10;;;;;;5065105;28;20040;-57
2023/04/21 05:58:45;;;;;;;17.80;12.48;;;8.80;83.30;;;;;;5068378;28;20037;-56
2023/04/21 06:01:11;;;;;;;21.13;12.18;;;8.80;94.80;;;;;;5068573;28;20409;-56
2023/04/21 06:03:37;;;;;;;18.42;11.13;;;8.80;91.00;;;;;;5068054;28;20028;-56
2023/04/21 06:06:04;;;;;;;20.83;11.90;;;9.20;81.40;;;;;;5066877;28;20095;-58
2023/04/21 06:08:30;;;;;;;19.38;11.50;;;8.80;91.50;;;;;;5068675;28;20504;-56
2023/04/21 06:10:56;;;;;;;18.08;11.50;;;8.50;97.20;;;;;;5064255;28;20034;-58
2023/04/21 06:13:22;;;;;;;18.25;11.60;;;8.80;98.80;;;;;;5069057;28;20039;-57
2023/04/21 06:15:48;;;;;;;18.90;11.20;;;8.80;85.70;;;;;;5068490;28;20044;-58
2023/04/21 06:18:13;;;;;;;17.25;11.13;;;9.30;76.90;;;;;;5071885;28;20123;-57
2023/04/21 06:20:42;;;;;;;16.40;11.13;;;9.10;87.20;;;;;;5071922;28;20064;-57
2023/04/21 06:23:08;;;;;;;18.63;10.90;;;9.10;92.60;;;;;;5068209;28;20033;-57
2023/04/21 06:25:34;;;;;;;16.80;11.07;;;8.70;95.00;;;;;;5064729;28;20502;-62
2023/04/21 06:27:59;;;;;;;19.85;10.63;;;9.30;92.90;;;;;;5071042;28;20051;-58
2023/04/21 06:30:25;;;;;;;16.35;10.75;;;8.50;86.20;;;;;;5070902;28;20033;-58
2023/04/21 06:32:51;;;;;;;17.73;11.25;;;8.80;83.40;;;;;;5071032;28;20078;-60
2023/04/21 06:35:16;;;;;;;16.25;10.75;;;9.00;97.20;;;;;;5071996;28;20040;-57
2023/04/21 06:37:42;;;;;;;22.33;11.25;;;9.30;92.50;;;;;;5064937;28;20514;-58
2023/04/21 06:40:08;;;;;;;15.27;10.18;;;10.00;67.80;;;;;;5053096;28;20071;-58
2023/04/21 06:42:33;;;;;;;17.08;9.98;;;9.50;76.90;;;;;;5068101;28;20043;-56
2023/04/21 06:44:59;;;;;;;16.45;10.38;;;9.40;59.50;;;;;;5069939;28;20048;-57
2023/04/21 06:47:25;;;;;;;18.63;10.55;;;10.20;12.80;;;;;;5070563;28;20040;-58
2023/04/21 06:49:51;;;;;;;15.70;10.55;;;9.40;1.00;;;;;;5070569;28;20041;-58
2023/04/21 06:52:16;;;;;;;17.48;11.02;;;9.90;1.00;;;;;;5068241;28;20044;-58
2023/04/21 06:54:42;;;;;;;17.10;10.10;;;9.70;1.00;;;;;;5061168;28;20487;-58
2023/04/21 06:57:07;;;;;;;16.92;10.98;;;10.00;1.00;;;;;;5071189;28;20120;-59
2023/04/21 06:59:33;;;;;;;17.52;10.38;;;9.40;1.00;;;;;;5053128;28;20032;-56
2023/04/21 07:01:59;;;;;;;19.13;10.15;;;10.30;1.00;;;;;;5068895;28;20461;-58
2023/04/21 07:04:30;;;;;;;15.27;9.70;;;10.10;1.00;;;;;;5071069;28;20068;-57
2023/04/21 07:06:56;;;;;;;16.13;10.93;;;9.90;1.00;;;;;;5070962;28;20040;-57
2023/04/21 07:09:22;;;;;;;14.45;9.48;;;9.70;1.00;;;;;;5066323;28;20028;-59
2023/04/21 07:11:47;;;;;;;17.55;11.63;;;10.30;1.00;;;;;;5068144;28;20054;-58
2023/04/21 07:14:13;;;;;;;14.48;10.18;;;9.90;1.00;;;;;;5070136;28;20036;-58
2023/04/21 07:16:39;;;;;;;18.02;10.75;;;10.10;1.00;;;;;;5070108;28;20409;-56
2023/04/21 07:19:04;;;;;;;18.50;9.93;;;10.00;99.90;;;;;;5070419;28;20036;-58
2023/04/21 07:21:30;;;;;;;18.83;10.18;;;10.10;99.90;;;;;;5070901;28;20072;-57
2023/04/21 07:23:57;;;;;;;18.33;10.52;;;10.20;99.90;;;;;;5069021;28;20051;-59
2023/04/21 07:26:23;;;;;;;19.48;10.32;;;10.30;99.90;;;;;;5064032;28;20048;-58
2023/04/21 07:28:49;;;;;;;15.32;10.05;;;10.40;99.90;;;;;;5067840;28;20418;-58
2023/04/21 07:31:15;;;;;;;17.40;11.23;;;10.60;99.90;;;;;;5066156;28;20033;-57
2023/04/21 07:33:40;;;;;;;16.17;10.27;;;10.50;99.90;;;;;;5070157;28;20044;-57
2023/04/21 07:36:06;;;;;;;16.98;10.13;;;11.30;99.90;;;;;;5069410;28;20068;-57
2023/04/21 07:38:32;;;;;;;15.32;10.40;;;11.50;99.90;;;;;;5069050;28;20032;-56
2023/04/21 07:40:58;;;;;;;15.48;9.93;;;11.30;99.90;;;;;;5069502;28;20575;-56
2023/04/21 07:43:25;;;;;;;15.75;10.13;;;11.30;99.90;;;;;;5068816;28;20074;-57
2023/04/21 07:45:51;;;;;;;17.38;9.98;;;11.50;99.90;;;;;;5066046;28;20490;-58
2023/04/21 07:48:17;;;;;;;15.05;10.20;;;11.70;99.90;;;;;;5068657;28;20040;-55
2023/04/21 07:50:43;;;;;;;17.38;11.20;;;11.10;99.90;;;;;;5069334;28;20094;-58
2023/04/21 07:53:09;;;;;;;17.42;10.85;;;11.70;99.90;;;;;;5069480;28;20032;-58
2023/04/21 07:55:36;;;;;;;15.10;10.43;;;11.30;99.90;;;;;;5069386;28;20409;-57
2023/04/21 07:58:05;;;;;;;15.50;10.20;;;11.70;99.90;;;;;;5064966;28;20041;-55
2023/04/21 08:00:31;;;;;;;16.63;10.35;;;11.80;7.60;;;;;;5069217;28;20406;-56
2023/04/21 08:02:56;;;;;;;16.48;9.70;;;12.50;1.00;;;;;;5068929;28;20070;-59
2023/04/21 08:05:22;;;;;;;17.00;9.43;;;13.00;1.00;;;;;;5069337;28;20040;-58
2023/04/21 08:07:48;;;;;;;17.50;9.25;;;12.30;1.00;;;;;;5069157;28;20478;-59
2023/04/21 08:10:13;;;;;;;17.35;10.45;;;13.50;1.00;;;;;;5068096;28;20089;-59
2023/04/21 08:12:39;;;;;;;14.30;10.50;;;12.80;1.00;;;;;;5069072;28;20044;-58
2023/04/21 08:15:07;;;;;;;17.20;10.43;;;12.70;1.00;;;;;;5068827;28;20033;-58
2023/04/21 08:17:32;;;;;;;17.08;9.38;;;13.10;1.00;;;;;;5068270;28;20062;-59
2023/04/21 08:19:58;;;;;;;17.00;9.95;;;12.80;1.00;;;;;;5069262;28;20065;-58
2023/04/21 08:22:24;;;;;;;16.98;10.07;;;12.70;1.00;;;;;;5069143;28;20028;-58
2023/04/21 08:24:49;;;;;;;16.85;11.18;;;13.70;1.00;;;;;;5069003;28;20040;-58
2023/04/21 08:27:15;;;;;;;19.08;10.75;;;12.50;1.00;;;;;;5069150;28;20508;-58
2023/04/21 08:29:41;;;;;;;14.25;9.13;;;12.60;1.00;;;;;;5068053;28;20037;-59
2023/04/21 08:32:06;;;;;;;20.55;10.98;;;12.70;1.00;;;;;;5060042;28;20041;-57
2023/04/21 08:34:33;;;;;;;15.38;9.93;;;;;;;;;;5068666;28;20126;-58
2023/04/21 08:36:58;;;;;;;17.17;9.80;;;12.90;99.90;;;;;;5067485;28;20101;-58
2023/04/21 08:39:24;;;;;;;16.42;11.30;;;12.80;1.00;;;;;;5068942;28;20039;-56
2023/04/21 08:41:50;;;;;;;21.63;10.65;;;12.50;1.00;;;;;;5067299;28;20052;-57
2023/04/21 08:44:18;;;;;;;15.80;10.10;;;12.70;1.00;;;;;;5068495;28;20466;-59
2023/04/21 08:46:44;;;;;;;16.08;10.43;;;12.70;1.00;;;;;;5068804;28;20383;-58
2023/04/21 08:49:11;;;;;;;16.23;10.55;;;12.60;99.90;;;;;;5068613;28;20093;-56
2023/04/21 08:51:37;;;;;;;16.42;10.35;;;12.70;1.00;;;;;;5069079;28;20032;-57
2023/04/21 08:54:03;;;;;;;18.10;10.35;;;12.60;1.00;;;;;;5066967;28;20040;-57
2023/04/21 08:56:28;;;;;;;14.57;10.27;;;12.80;1.00;;;;;;5069042;28;20029;-58
2023/04/21 08:58:54;;;;;;;18.17;9.65;;;13.50;1.00;;;;;;5068247;28;20119;-59
2023/04/21 09:01:19;;;;;;;16.50;11.10;;;12.80;99.90;;;;;;5068927;28;20341;-58
2023/04/21 09:03:45;;;;;;;14.32;9.98;;;12.90;99.90;;;;;;5068384;28;20070;-58
2023/04/21 09:06:11;;;;;;;14.18;9.57;;;12.50;99.90;;;;;;5068809;28;20413;-58
2023/04/21 09:08:41;;;;;;;13.73;9.63;;;13.30;99.90;;;;;;5068606;28;20116;-58
2023/04/21 09:11:07;;;;;;;16.27;10.25;;;13.60;99.90;;;;;;5068257;28;20036;-58
2023/04/21 09:13:34;;;;;;;20.75;9.93;;;13.60;99.90;;;;;;5068320;28;20032;-59
2023/04/21 09:16:02;;;;;;;18.55;10.55;;;13.20;99.90;;;;;;5067662;28;20029;-58
2023/04/21 09:18:36;;;;;;;13.98;9.73;;;12.90;99.90;;;;;;5068422;28;20426;-59
2023/04/21 09:21:10;;;;;;;13.85;9.18;;;13.30;99.90;;;;;;5068142;28;20037;-58
2023/04/21 09:23:45;;;;;;;16.15;9.73;;;12.80;99.90;;;;;;5067422;28;20044;-58
2023/04/21 09:26:12;;;;;;;15.48;10.05;;;13.70;99.90;;;;;;5066936;28;20094;-58
2023/04/21 09:28:42;;;;;;;14.10;9.05;;;;;;;;;;5063965;28;20031;-58
2023/04/21 09:31:19;;;;;;;16.48;9.95;;;13.90;99.90;;;;;;5068072;28;20049;-58
2023/04/21 09:33:50;;;;;;;13.88;10.27;;;13.50;99.90;;;;;;5063602;28;20039;-58
2023/04/21 09:36:23;;;;;;;16.08;9.88;;;13.80;99.90;;;;;;5065867;28;20457;-59
2023/04/21 09:38:57;;;;;;;13.90;10.25;;;14.20;99.90;;;;;;5061670;28;20051;-59
2023/04/21 09:41:24;;;;;;;17.38;9.80;;;14.30;99.90;;;;;;5067144;28;20498;-59
2023/04/21 09:43:50;;;;;;;14.93;9.70;;;14.60;99.90;;;;;;5068222;28;20051;-58
2023/04/21 09:46:16;;;;;;;15.65;9.60;;;;;;;;;;5067239;28;20554;-57
2023/04/21 09:48:46;;;;;;;13.85;9.07;;;15.20;99.90;;;;;;5066381;28;20079;-59
2023/04/21 09:51:13;;;;;;;18.13;10.25;;;15.00;99.90;;;;;;5067027;28;20247;-59
2023/04/21 09:53:40;;;;;;;18.58;10.02;;;15.40;99.90;;;;;;5069875;28;20133;-60
2023/04/21 09:56:11;;;;;;;16.38;9.93;;;16.10;99.90;;;;;;5070468;28;20750;-59
2023/04/21 09:58:45;;;;;;;15.30;9.20;;;16.10;99.90;;;;;;5070923;28;20029;-59
2023/04/21 10:01:12;;;;;;;14.35;9.38;;;16.20;99.90;;;;;;5071817;28;20037;-59
2023/04/21 10:03:39;;;;;;;15.75;9.65;;;15.70;99.90;;;;;;5069590;28;20040;-59
2023/04/21 10:06:05;;;;;;;16.77;9.80;;;15.80;99.90;;;;;;5062032;28;20036;-59
2023/04/21 10:08:31;;;;;;;15.75;9.63;;;16.60;99.90;;;;;;5071721;28;20036;-58
2023/04/21 10:10:59;;;;;;;15.57;9.48;;;16.80;99.90;;;;;;5069984;28;20460;-59
2023/04/21 10:13:26;;;;;;;19.75;10.32;;;16.60;99.90;;;;;;5068778;28;20112;-59
2023/04/21 10:16:06;;;;;;;14.63;8.98;;;16.90;99.90;;;;;;5071218;28;20033;-60
2023/04/21 10:18:37;;;;;;;16.98;9.85;;;17.10;99.90;;;;;;5070258;28;20042;-59
2023/04/21 10:21:07;;;;;;;14.45;9.05;;;17.50;99.90;;;;;;5071099;28;20508;-60
2023/04/21 10:23:35;;;;;;;15.73;9.70;;;16.50;99.90;;;;;;5063371;28;20048;-59
2023/04/21 10:26:09;;;;;;;15.30;9.07;;;16.80;99.90;;;;;;5069395;28;20071;-58
2023/04/21 10:28:39;;;;;;;;;;;16.60;99.90;;;;;;5068776;28;20036;-59
2023/04/21 10:31:35;;;;;;;13.45;8.77;;;16.70;99.90;;;;;;5068251;28;19929;-58
2023/04/21 10:34:06;;;;;;;15.77;9.65;;;16.80;99.90;;;;;;5069648;28;20043;-59
2023/04/21 10:36:42;;;;;;;15.27;8.93;;;17.80;99.90;;;;;;5060038;28;20036;-57
2023/04/21 10:39:07;;;;;;;14.23;8.77;;;17.50;94.20;;;;;;5065477;28;20044;-58
2023/04/21 10:41:34;;;;;;;15.68;9.98;;;17.50;99.90;;;;;;5071450;28;20434;-57
2023/04/21 10:44:10;;;;;;;16.98;9.27;;;18.40;99.10;;;;;;5069799;28;20173;-60
2023/04/21 10:46:50;;;;;;;14.95;9.27;;;17.70;99.90;;;;;;5068045;28;20036;-58
2023/04/21 10:49:22;;;;;;;17.52;10.15;;;17.70;99.90;;;;;;5067686;28;20032;-59
2023/04/21 10:51:57;;;;;;;17.65;9.20;;;18.50;75.00;;;;;;5071528;28;20191;-59
2023/04/21 10:54:30;;;;;;;15.93;9.55;;;18.70;97.30;;;;;;5062843;28;20041;-58
2023/04/21 10:56:57;;;;;;;17.40;8.80;;;17.60;91.90;;;;;;5070712;28;20565;-58
2023/04/21 10:59:25;;;;;;;13.05;8.63;;;18.00;72.60;;;;;;5071232;28;20025;-59
2023/04/21 11:01:51;;;;;;;15.45;8.75;;;17.60;77.70;;;;;;5070054;28;20040;-60
2023/04/21 11:04:18;;;;;;;14.38;10.02;;;18.10;72.20;;;;;;5062044;28;20402;-58
2023/04/21 11:07:05;;;;;;;17.20;8.65;;;17.60;71.70;;;;;;5071441;28;20041;-59
2023/04/21 11:09:31;;;;;;;14.60;8.73;;;18.30;75.50;;;;;;5065460;28;20068;-57
2023/04/21 11:12:03;;;;;;;15.43;9.50;;;17.90;63.50;;;;;;5069176;28;20109;-58
2023/04/21 11:14:30;;;;;;;17.25;8.93;;;17.90;66.80;;;;;;5064522;28;20041;-59
2023/04/21 11:16:55;;;;;;;14.93;8.85;;;18.30;60.40;;;;;;5070720;28;20115;-59
2023/04/21 11:19:24;;;;;;;15.30;9.10;;;18.40;57.60;;;;;;5070996;28;20165;-57
2023/04/21 11:21:52;;;;;;;15.90;9.75;;;19.10;34.70;;;;;;5070805;28;20383;-57
2023/04/21 11:24:19;;;;;;;12.98;8.57;;;18.50;56.10;;;;;;5059502;28;20052;-59
2023/04/21 11:26:45;;;;;;;17.90;9.93;;;19.00;53.50;;;;;;5064385;28;20036;-59
2023/04/21 11:29:11;;;;;;;12.32;8.70;;;19.30;44.00;;;;;;5070300;28;20461;-59
2023/04/21 11:31:38;;;;;;;15.23;9.43;;;18.90;36.30;;;;;;5070549;28;20063;-59
2023/04/21 11:34:06;;;;;;;15.05;8.98;;;19.80;37.50;;;;;;5070422;28;20083;-60
2023/04/21 11:36:36;;;;;;;13.45;8.88;;;18.80;32.80;;;;;;5062080;28;20055;-58
2023/04/21 11:39:12;;;;;;;12.70;8.48;;;19.60;33.40;;;;;;5070148;28;20310;-58
2023/04/21 11:41:43;;;;;;;15.93;9.10;;;19.40;29.20;;;;;;5069848;28;20036;-59
2023/04/21 11:44:09;;;;;;;13.98;8.40;;;19.50;23.80;;;;;;5068752;28;20158;-58
2023/04/21 11:46:38;;;;;;;12.55;9.02;;;19.50;19.10;;;;;;5070396;28;20075;-59
2023/04/21 11:49:10;;;;;;;15.48;10.05;;;20.00;1.00;;;;;;5070150;28;20179;-59
2023/04/21 11:51:37;;;;;;;16.75;9.52;;;20.00;16.60;;;;;;5069956;28;20401;-59
2023/04/21 11:54:05;;;;;;;14.10;8.73;;;19.80;8.70;;;;;;5069729;28;20283;-58
2023/04/21 11:56:38;;;;;;;17.65;8.68;;;20.10;9.50;;;;;;5069573;28;20401;-59
2023/04/21 11:59:14;;;;;;;15.25;9.00;;;20.20;1.00;;;;;;5069848;28;20047;-59
2023/04/21 12:01:46;;;;;;;14.38;8.32;;;20.30;7.70;;;;;;5069904;28;20079;-60
2023/04/21 12:04:23;;;;;;;15.43;8.68;;;21.20;1.00;;;;;;5067742;28;20090;-57
2023/04/21 12:07:00;;;;;;;13.93;9.70;;;21.10;3.40;;;;;;5069794;28;20044;-59
2023/04/21 12:09:27;;;;;;;12.43;8.23;;;21.40;1.70;;;;;;5069530;28;20037;-58
2023/04/21 12:11:54;;;;;;;13.02;8.55;;;21.50;1.00;;;;;;5069549;28;20072;-58
2023/04/21 12:14:22;;;;;;;12.38;8.05;;;20.80;1.00;;;;;;5067892;28;20032;-58
2023/04/21 12:16:55;;;;;;;13.18;8.25;;;22.10;1.00;;;;;;5069790;28;20448;-59
2023/04/21 12:19:23;;;;;;;13.48;8.15;;;22.10;1.00;;;;;;5067981;28;20056;-59
2023/04/21 12:21:54;;;;;;;15.80;8.25;;;22.30;1.00;;;;;;5062332;28;20414;-58
2023/04/21 12:24:19;;;;;;;12.02;7.80;;;21.20;1.00;;;;;;5066359;28;20040;-59
2023/04/21 12:26:45;;;;;;;11.60;7.57;;;21.50;1.00;;;;;;5069925;28;20040;-60
2023/04/21 12:29:11;;;;;;;12.38;7.28;;;21.00;1.00;;;;;;5068620;28;20433;-59
2023/04/21 12:31:36;;;;;;;12.57;7.13;;;21.40;1.00;;;;;;5066801;28;20486;-58
2023/04/21 12:34:02;;;;;;;13.05;7.40;;;20.70;1.00;;;;;;5067452;28;20036;-59
2023/04/21 12:36:28;;;;;;;12.20;7.78;;;21.00;1.00;;;;;;5068505;28;20025;-58
2023/04/21 12:38:53;;;;;;;12.25;6.72;;;22.00;1.00;;;;;;5069312;28;20033;-55